sensor_id;sensor_type;location;lat;lon;timestamp;P1;durP1;ratioP1;P2;durP2;ratioP2
29906;SDS011;16776;50.958;10.994;2023-12-20T00:01:07;0.00;;;0.00;;
29906;SDS011;16776;50.958;10.994;2023-12-20T00:03:34;0.00;;;0.00;;
29906;SDS011;16776;50.958;10.994;2023-12-20T00:06:00;0.08;;;0.08;;
29906;SDS011;16776;50.958;10.994;2023-12-20T00:08:27;0.10;;;0.00;;
29906;SDS011;16776;50.958;10.994;2023-12-20T00:10:53;0.10;;;0.10;;
29906;SDS011;16776;50.958;10.994;2023-12-20T00:13:20;0.00;;;0.00;;
29906;SDS011;16776;50.958;10.994;2023-12-20T00:15:48;0.10;;;0.10;;
29906;SDS011;16776;50.958;10.994;2023-12-20T00:18:14;0.00;;;0.00;;
29906;SDS011;16776;50.958;10.994;2023-12-20T00:20:41;0.35;;;0.03;;
29906;SDS011;16776;50.958;10.994;2023-12-20T00:23:08;0.10;;;0.10;;
29906;SDS011;16776;50.958;10.994;2023-12-20T00:25:34;0.00;;;0.00;;
29906;SDS011;16776;50.958;10.994;2023-12-20T00:28:01;0.10;;;0.03;;
29906;SDS011;16776;50.958;10.994;2023-12-20T00:30:28;0.00;;;0.00;;
29906;SDS011;16776;50.958;10.994;2023-12-20T00:32:56;0.10;;;0.10;;
29906;SDS011;16776;50.958;10.994;2023-12-20T00:35:23;0.20;;;0.10;;
29906;SDS011;16776;50.958;10.994;2023-12-20T00:37:49;0.10;;;0.10;;
29906;SDS011;16776;50.958;10.994;2023-12-20T00:40:16;0.00;;;0.00;;
29906;SDS011;16776;50.958;10.994;2023-12-20T00:42:42;0.00;;;0.00;;
29906;SDS011;16776;50.958;10.994;2023-12-20T00:45:09;0.00;;;0.00;;
29906;SDS011;16776;50.958;10.994;2023-12-20T00:47:36;0.00;;;0.00;;
29906;SDS011;16776;50.958;10.994;2023-12-20T00:50:04;0.00;;;0.00;;
29906;SDS011;16776;50.958;10.994;2023-12-20T00:52:31;0.00;;;0.00;;
29906;SDS011;16776;50.958;10.994;2023-12-20T00:54:58;0.25;;;0.00;;
29906;SDS011;16776;50.958;10.994;2023-12-20T00:57:25;0.00;;;0.00;;
29906;SDS011;16776;50.958;10.994;2023-12-20T00:59:51;0.00;;;0.00;;
29906;SDS011;16776;50.958;10.994;2023-12-20T01:02:18;0.00;;;0.00;;
29906;SDS011;16776;50.958;10.994;2023-12-20T01:04:45;0.03;;;0.03;;
29906;SDS011;16776;50.958;10.994;2023-12-20T01:07:13;0.10;;;0.00;;
29906;SDS011;16776;50.958;10.994;2023-12-20T01:09:39;0.03;;;0.00;;
29906;SDS011;16776;50.958;10.994;2023-12-20T01:12:06;0.00;;;0.00;;
29906;SDS011;16776;50.958;10.994;2023-12-20T01:14:32;0.00;;;0.00;;
29906;SDS011;16776;50.958;10.994;2023-12-20T01:16:59;0.00;;;0.00;;
29906;SDS011;16776;50.958;10.994;2023-12-20T01:19:26;0.00;;;0.00;;
29906;SDS011;16776;50.958;10.994;2023-12-20T01:21:54;0.00;;;0.00;;
29906;SDS011;16776;50.958;10.994;2023-12-20T01:24:22;0.10;;;0.03;;
29906;SDS011;16776;50.958;10.994;2023-12-20T01:26:49;0.00;;;0.00;;
29906;SDS011;16776;50.958;10.994;2023-12-20T01:29:15;0.22;;;0.08;;
29906;SDS011;16776;50.958;10.994;2023-12-20T01:31:42;0.00;;;0.00;;
29906;SDS011;16776;50.958;10.994;2023-12-20T01:34:09;0.10;;;0.00;;
29906;SDS011;16776;50.958;10.994;2023-12-20T01:36:35;0.25;;;0.10;;
29906;SDS011;16776;50.958;10.994;2023-12-20T01:39:02;0.32;;;0.10;;
29906;SDS011;16776;50.958;10.994;2023-12-20T01:41:30;0.20;;;0.10;;
29906;SDS011;16776;50.958;10.994;2023-12-20T01:43:57;0.20;;;0.10;;
29906;SDS011;16776;50.958;10.994;2023-12-20T01:46:23;0.00;;;0.00;;
29906;SDS011;16776;50.958;10.994;2023-12-20T01:48:50;0.00;;;0.00;;
29906;SDS011;16776;50.958;10.994;2023-12-20T01:51:18;0.00;;;0.00;;
29906;SDS011;16776;50.958;10.994;2023-12-20T01:53:45;0.10;;;0.00;;
29906;SDS011;16776;50.958;10.994;2023-12-20T01:56:13;0.00;;;0.00;;
29906;SDS011;16776;50.958;10.994;2023-12-20T01:58:43;0.10;;;0.10;;
29906;SDS011;16776;50.958;10.994;2023-12-20T02:01:11;0.13;;;0.00;;
29906;SDS011;16776;50.958;10.994;2023-12-20T02:03:37;0.08;;;0.00;;
29906;SDS011;16776;50.958;10.994;2023-12-20T02:06:04;0.00;;;0.00;;
29906;SDS011;16776;50.958;10.994;2023-12-20T02:08:31;0.28;;;0.00;;
29906;SDS011;16776;50.958;10.994;2023-12-20T02:10:58;0.00;;;0.00;;
29906;SDS011;16776;50.958;10.994;2023-12-20T02:13:26;0.00;;;0.00;;
29906;SDS011;16776;50.958;10.994;2023-12-20T02:15:54;0.00;;;0.00;;
29906;SDS011;16776;50.958;10.994;2023-12-20T02:18:20;0.73;;;0.10;;
29906;SDS011;16776;50.958;10.994;2023-12-20T02:20:47;0.43;;;0.00;;
29906;SDS011;16776;50.958;10.994;2023-12-20T02:23:15;0.10;;;0.00;;
29906;SDS011;16776;50.958;10.994;2023-12-20T02:25:42;0.00;;;0.00;;
29906;SDS011;16776;50.958;10.994;2023-12-20T02:28:08;0.00;;;0.00;;
29906;SDS011;16776;50.958;10.994;2023-12-20T02:30:35;0.00;;;0.00;;
29906;SDS011;16776;50.958;10.994;2023-12-20T02:33:02;0.00;;;0.00;;
29906;SDS011;16776;50.958;10.994;2023-12-20T02:35:33;0.17;;;0.10;;
29906;SDS011;16776;50.958;10.994;2023-12-20T02:38:00;0.20;;;0.10;;
29906;SDS011;16776;50.958;10.994;2023-12-20T02:40:28;0.20;;;0.00;;
29906;SDS011;16776;50.958;10.994;2023-12-20T02:42:54;0.10;;;0.10;;
29906;SDS011;16776;50.958;10.994;2023-12-20T02:45:21;0.00;;;0.00;;
29906;SDS011;16776;50.958;10.994;2023-12-20T02:47:47;0.03;;;0.03;;
29906;SDS011;16776;50.958;10.994;2023-12-20T02:50:13;0.22;;;0.10;;
29906;SDS011;16776;50.958;10.994;2023-12-20T02:52:40;0.52;;;0.10;;
29906;SDS011;16776;50.958;10.994;2023-12-20T02:55:06;0.00;;;0.00;;
29906;SDS011;16776;50.958;10.994;2023-12-20T02:57:34;0.05;;;0.05;;
29906;SDS011;16776;50.958;10.994;2023-12-20T03:00:01;0.00;;;0.00;;
29906;SDS011;16776;50.958;10.994;2023-12-20T03:02:28;0.00;;;0.00;;
29906;SDS011;16776;50.958;10.994;2023-12-20T03:04:54;0.00;;;0.00;;
29906;SDS011;16776;50.958;10.994;2023-12-20T03:07:21;0.20;;;0.00;;
29906;SDS011;16776;50.958;10.994;2023-12-20T03:09:48;0.00;;;0.00;;
29906;SDS011;16776;50.958;10.994;2023-12-20T03:12:14;0.00;;;0.00;;
29906;SDS011;16776;50.958;10.994;2023-12-20T03:14:43;0.00;;;0.00;;
29906;SDS011;16776;50.958;10.994;2023-12-20T03:17:09;0.00;;;0.00;;
29906;SDS011;16776;50.958;10.994;2023-12-20T03:19:36;0.00;;;0.00;;
29906;SDS011;16776;50.958;10.994;2023-12-20T03:22:03;0.10;;;0.10;;
29906;SDS011;16776;50.958;10.994;2023-12-20T03:24:29;0.10;;;0.00;;
29906;SDS011;16776;50.958;10.994;2023-12-20T03:26:56;0.00;;;0.00;;
29906;SDS011;16776;50.958;10.994;2023-12-20T03:29:22;0.10;;;0.10;;
29906;SDS011;16776;50.958;10.994;2023-12-20T03:31:50;0.20;;;0.10;;
29906;SDS011;16776;50.958;10.994;2023-12-20T03:34:17;0.00;;;0.00;;
29906;SDS011;16776;50.958;10.994;2023-12-20T03:36:43;0.00;;;0.00;;
29906;SDS011;16776;50.958;10.994;2023-12-20T03:39:12;0.15;;;0.00;;
29906;SDS011;16776;50.958;10.994;2023-12-20T03:41:39;0.00;;;0.00;;
29906;SDS011;16776;50.958;10.994;2023-12-20T03:44:06;0.00;;;0.00;;
29906;SDS011;16776;50.958;10.994;2023-12-20T03:46:32;0.00;;;0.00;;
29906;SDS011;16776;50.958;10.994;2023-12-20T03:49:00;0.00;;;0.00;;
29906;SDS011;16776;50.958;10.994;2023-12-20T03:51:27;0.10;;;0.08;;
29906;SDS011;16776;50.958;10.994;2023-12-20T03:53:53;0.10;;;0.10;;
29906;SDS011;16776;50.958;10.994;2023-12-20T03:56:20;0.00;;;0.00;;
29906;SDS011;16776;50.958;10.994;2023-12-20T03:58:46;0.00;;;0.00;;
29906;SDS011;16776;50.958;10.994;2023-12-20T04:01:13;0.00;;;0.00;;
29906;SDS011;16776;50.958;10.994;2023-12-20T04:03:39;0.00;;;0.00;;
29906;SDS011;16776;50.958;10.994;2023-12-20T04:06:07;0.10;;;0.10;;
29906;SDS011;16776;50.958;10.994;2023-12-20T04:08:34;0.10;;;0.10;;
29906;SDS011;16776;50.958;10.994;2023-12-20T04:11:01;0.00;;;0.00;;
29906;SDS011;16776;50.958;10.994;2023-12-20T04:13:27;0.00;;;0.00;;
29906;SDS011;16776;50.958;10.994;2023-12-20T04:15:54;0.00;;;0.00;;
29906;SDS011;16776;50.958;10.994;2023-12-20T04:18:20;0.00;;;0.00;;
29906;SDS011;16776;50.958;10.994;2023-12-20T04:20:47;0.00;;;0.00;;
29906;SDS011;16776;50.958;10.994;2023-12-20T04:23:15;0.08;;;0.08;;
29906;SDS011;16776;50.958;10.994;2023-12-20T04:25:42;0.00;;;0.00;;
29906;SDS011;16776;50.958;10.994;2023-12-20T04:28:08;0.00;;;0.00;;
29906;SDS011;16776;50.958;10.994;2023-12-20T04:30:35;0.00;;;0.00;;
29906;SDS011;16776;50.958;10.994;2023-12-20T04:33:02;0.10;;;0.10;;
29906;SDS011;16776;50.958;10.994;2023-12-20T04:35:29;0.10;;;0.10;;
29906;SDS011;16776;50.958;10.994;2023-12-20T04:37:55;0.08;;;0.08;;
29906;SDS011;16776;50.958;10.994;2023-12-20T04:40:23;0.05;;;0.05;;
29906;SDS011;16776;50.958;10.994;2023-12-20T04:42:50;0.00;;;0.00;;
29906;SDS011;16776;50.958;10.994;2023-12-20T04:45:16;0.08;;;0.08;;
29906;SDS011;16776;50.958;10.994;2023-12-20T04:47:44;0.10;;;0.10;;
29906;SDS011;16776;50.958;10.994;2023-12-20T04:50:12;0.13;;;0.13;;
29906;SDS011;16776;50.958;10.994;2023-12-20T04:52:39;0.20;;;0.20;;
29906;SDS011;16776;50.958;10.994;2023-12-20T04:55:06;0.20;;;0.20;;
29906;SDS011;16776;50.958;10.994;2023-12-20T04:57:35;0.10;;;0.10;;
29906;SDS011;16776;50.958;10.994;2023-12-20T05:00:01;0.38;;;0.20;;
29906;SDS011;16776;50.958;10.994;2023-12-20T05:02:29;0.22;;;0.22;;
29906;SDS011;16776;50.958;10.994;2023-12-20T05:04:56;0.17;;;0.17;;
29906;SDS011;16776;50.958;10.994;2023-12-20T05:07:22;0.30;;;0.30;;
29906;SDS011;16776;50.958;10.994;2023-12-20T05:09:49;0.20;;;0.20;;
29906;SDS011;16776;50.958;10.994;2023-12-20T05:12:16;0.20;;;0.20;;
29906;SDS011;16776;50.958;10.994;2023-12-20T05:14:44;0.22;;;0.22;;
29906;SDS011;16776;50.958;10.994;2023-12-20T05:17:11;0.20;;;0.20;;
29906;SDS011;16776;50.958;10.994;2023-12-20T05:19:37;0.20;;;0.20;;
29906;SDS011;16776;50.958;10.994;2023-12-20T05:22:04;0.30;;;0.30;;
29906;SDS011;16776;50.958;10.994;2023-12-20T05:24:30;1.20;;;0.30;;
29906;SDS011;16776;50.958;10.994;2023-12-20T05:26:57;1.05;;;0.35;;
29906;SDS011;16776;50.958;10.994;2023-12-20T05:29:23;0.30;;;0.30;;
29906;SDS011;16776;50.958;10.994;2023-12-20T05:31:51;0.35;;;0.20;;
29906;SDS011;16776;50.958;10.994;2023-12-20T05:34:18;0.30;;;0.30;;
29906;SDS011;16776;50.958;10.994;2023-12-20T05:36:45;0.20;;;0.20;;
29906;SDS011;16776;50.958;10.994;2023-12-20T05:39:11;1.50;;;0.30;;
29906;SDS011;16776;50.958;10.994;2023-12-20T05:41:38;0.20;;;0.20;;
29906;SDS011;16776;50.958;10.994;2023-12-20T05:44:05;0.60;;;0.20;;
29906;SDS011;16776;50.958;10.994;2023-12-20T05:46:31;0.20;;;0.20;;
29906;SDS011;16776;50.958;10.994;2023-12-20T05:48:59;0.20;;;0.20;;
29906;SDS011;16776;50.958;10.994;2023-12-20T05:51:26;0.20;;;0.20;;
29906;SDS011;16776;50.958;10.994;2023-12-20T05:53:52;0.20;;;0.20;;
29906;SDS011;16776;50.958;10.994;2023-12-20T05:56:19;0.20;;;0.20;;
29906;SDS011;16776;50.958;10.994;2023-12-20T05:58:45;0.20;;;0.20;;
29906;SDS011;16776;50.958;10.994;2023-12-20T06:01:12;0.20;;;0.20;;
29906;SDS011;16776;50.958;10.994;2023-12-20T06:03:42;0.20;;;0.20;;
29906;SDS011;16776;50.958;10.994;2023-12-20T06:06:10;0.40;;;0.40;;
29906;SDS011;16776;50.958;10.994;2023-12-20T06:08:37;0.50;;;0.50;;
29906;SDS011;16776;50.958;10.994;2023-12-20T06:11:04;0.47;;;0.45;;
29906;SDS011;16776;50.958;10.994;2023-12-20T06:13:31;0.40;;;0.40;;
29906;SDS011;16776;50.958;10.994;2023-12-20T06:15:58;1.20;;;0.52;;
29906;SDS011;16776;50.958;10.994;2023-12-20T06:18:24;0.60;;;0.60;;
29906;SDS011;16776;50.958;10.994;2023-12-20T06:20:51;0.40;;;0.40;;
29906;SDS011;16776;50.958;10.994;2023-12-20T06:23:19;0.40;;;0.40;;
29906;SDS011;16776;50.958;10.994;2023-12-20T06:25:45;0.52;;;0.52;;
29906;SDS011;16776;50.958;10.994;2023-12-20T06:28:12;0.45;;;0.45;;
29906;SDS011;16776;50.958;10.994;2023-12-20T06:30:39;0.50;;;0.50;;
29906;SDS011;16776;50.958;10.994;2023-12-20T06:33:06;0.40;;;0.40;;
29906;SDS011;16776;50.958;10.994;2023-12-20T06:35:34;1.40;;;0.50;;
29906;SDS011;16776;50.958;10.994;2023-12-20T06:38:01;0.50;;;0.50;;
29906;SDS011;16776;50.958;10.994;2023-12-20T06:40:29;0.57;;;0.57;;
29906;SDS011;16776;50.958;10.994;2023-12-20T06:42:56;0.60;;;0.60;;
29906;SDS011;16776;50.958;10.994;2023-12-20T06:45:22;0.57;;;0.45;;
29906;SDS011;16776;50.958;10.994;2023-12-20T06:47:49;0.40;;;0.40;;
29906;SDS011;16776;50.958;10.994;2023-12-20T06:50:15;0.43;;;0.30;;
29906;SDS011;16776;50.958;10.994;2023-12-20T06:52:42;0.85;;;0.50;;
29906;SDS011;16776;50.958;10.994;2023-12-20T06:55:08;0.52;;;0.52;;
29906;SDS011;16776;50.958;10.994;2023-12-20T06:57:36;0.95;;;0.73;;
29906;SDS011;16776;50.958;10.994;2023-12-20T07:00:03;0.60;;;0.60;;
29906;SDS011;16776;50.958;10.994;2023-12-20T07:02:30;0.88;;;0.60;;
29906;SDS011;16776;50.958;10.994;2023-12-20T07:04:57;1.08;;;0.93;;
29906;SDS011;16776;50.958;10.994;2023-12-20T07:07:24;0.75;;;0.73;;
29906;SDS011;16776;50.958;10.994;2023-12-20T07:09:51;1.40;;;0.98;;
29906;SDS011;16776;50.958;10.994;2023-12-20T07:12:17;0.70;;;0.70;;
29906;SDS011;16776;50.958;10.994;2023-12-20T07:14:48;1.23;;;0.73;;
29906;SDS011;16776;50.958;10.994;2023-12-20T07:17:15;0.80;;;0.80;;
29906;SDS011;16776;50.958;10.994;2023-12-20T07:19:41;0.90;;;0.90;;
29906;SDS011;16776;50.958;10.994;2023-12-20T07:22:08;0.80;;;0.70;;
29906;SDS011;16776;50.958;10.994;2023-12-20T07:24:35;1.50;;;0.70;;
29906;SDS011;16776;50.958;10.994;2023-12-20T07:27:01;0.60;;;0.52;;
29906;SDS011;16776;50.958;10.994;2023-12-20T07:29:28;2.30;;;0.90;;
29906;SDS011;16776;50.958;10.994;2023-12-20T07:31:56;0.50;;;0.50;;
29906;SDS011;16776;50.958;10.994;2023-12-20T07:34:23;1.65;;;0.60;;
29906;SDS011;16776;50.958;10.994;2023-12-20T07:36:49;1.52;;;0.60;;
29906;SDS011;16776;50.958;10.994;2023-12-20T07:39:16;1.80;;;0.47;;
29906;SDS011;16776;50.958;10.994;2023-12-20T07:41:43;0.43;;;0.35;;
29906;SDS011;16776;50.958;10.994;2023-12-20T07:44:10;0.68;;;0.40;;
29906;SDS011;16776;50.958;10.994;2023-12-20T07:46:36;0.68;;;0.47;;
29906;SDS011;16776;50.958;10.994;2023-12-20T07:49:04;0.85;;;0.40;;
29906;SDS011;16776;50.958;10.994;2023-12-20T07:51:31;3.75;;;0.70;;
29906;SDS011;16776;50.958;10.994;2023-12-20T07:53:58;1.27;;;0.47;;
29906;SDS011;16776;50.958;10.994;2023-12-20T07:56:24;0.88;;;0.52;;
29906;SDS011;16776;50.958;10.994;2023-12-20T07:58:51;1.85;;;0.60;;
29906;SDS011;16776;50.958;10.994;2023-12-20T08:01:17;1.20;;;1.15;;
29906;SDS011;16776;50.958;10.994;2023-12-20T08:03:44;2.30;;;0.90;;
29906;SDS011;16776;50.958;10.994;2023-12-20T08:06:12;1.48;;;0.77;;
29906;SDS011;16776;50.958;10.994;2023-12-20T08:08:39;0.50;;;0.50;;
29906;SDS011;16776;50.958;10.994;2023-12-20T08:11:05;3.08;;;1.13;;
29906;SDS011;16776;50.958;10.994;2023-12-20T08:13:32;2.00;;;0.80;;
29906;SDS011;16776;50.958;10.994;2023-12-20T08:15:58;2.15;;;1.08;;
29906;SDS011;16776;50.958;10.994;2023-12-20T08:18:27;0.82;;;0.57;;
29906;SDS011;16776;50.958;10.994;2023-12-20T08:20:54;5.10;;;0.70;;
29906;SDS011;16776;50.958;10.994;2023-12-20T08:23:22;2.90;;;1.52;;
29906;SDS011;16776;50.958;10.994;2023-12-20T08:25:48;0.90;;;0.75;;
29906;SDS011;16776;50.958;10.994;2023-12-20T08:28:15;1.75;;;0.90;;
29906;SDS011;16776;50.958;10.994;2023-12-20T08:30:41;1.85;;;1.45;;
29906;SDS011;16776;50.958;10.994;2023-12-20T08:33:08;0.77;;;0.77;;
29906;SDS011;16776;50.958;10.994;2023-12-20T08:35:37;1.95;;;1.08;;
29906;SDS011;16776;50.958;10.994;2023-12-20T08:38:04;2.58;;;0.85;;
29906;SDS011;16776;50.958;10.994;2023-12-20T08:40:32;3.70;;;0.93;;
29906;SDS011;16776;50.958;10.994;2023-12-20T08:42:58;1.08;;;0.90;;
29906;SDS011;16776;50.958;10.994;2023-12-20T08:45:25;1.00;;;0.93;;
29906;SDS011;16776;50.958;10.994;2023-12-20T08:47:51;1.88;;;0.95;;
29906;SDS011;16776;50.958;10.994;2023-12-20T08:50:18;0.88;;;0.82;;
29906;SDS011;16776;50.958;10.994;2023-12-20T08:52:45;3.08;;;0.90;;
29906;SDS011;16776;50.958;10.994;2023-12-20T08:55:12;1.95;;;0.90;;
29906;SDS011;16776;50.958;10.994;2023-12-20T08:57:41;1.02;;;0.65;;
29906;SDS011;16776;50.958;10.994;2023-12-20T09:00:08;2.85;;;1.10;;
29906;SDS011;16776;50.958;10.994;2023-12-20T09:02:35;1.58;;;0.82;;
29906;SDS011;16776;50.958;10.994;2023-12-20T09:05:02;3.67;;;0.80;;
29906;SDS011;16776;50.958;10.994;2023-12-20T09:07:29;0.88;;;0.60;;
29906;SDS011;16776;50.958;10.994;2023-12-20T09:09:57;1.63;;;0.73;;
29906;SDS011;16776;50.958;10.994;2023-12-20T09:12:24;3.50;;;0.63;;
29906;SDS011;16776;50.958;10.994;2023-12-20T09:14:52;1.67;;;0.70;;
29906;SDS011;16776;50.958;10.994;2023-12-20T09:17:19;1.20;;;0.70;;
29906;SDS011;16776;50.958;10.994;2023-12-20T09:19:45;6.25;;;0.73;;
29906;SDS011;16776;50.958;10.994;2023-12-20T09:22:12;1.85;;;0.82;;
29906;SDS011;16776;50.958;10.994;2023-12-20T09:24:39;2.47;;;0.90;;
29906;SDS011;16776;50.958;10.994;2023-12-20T09:27:05;1.50;;;0.80;;
29906;SDS011;16776;50.958;10.994;2023-12-20T09:29:32;3.00;;;1.00;;
29906;SDS011;16776;50.958;10.994;2023-12-20T09:32:00;3.33;;;0.70;;
29906;SDS011;16776;50.958;10.994;2023-12-20T09:34:26;1.50;;;0.80;;
29906;SDS011;16776;50.958;10.994;2023-12-20T09:36:53;2.03;;;0.80;;
29906;SDS011;16776;50.958;10.994;2023-12-20T09:39:20;1.48;;;0.90;;
29906;SDS011;16776;50.958;10.994;2023-12-20T09:41:49;1.15;;;0.90;;
29906;SDS011;16776;50.958;10.994;2023-12-20T09:44:26;1.30;;;0.70;;
29906;SDS011;16776;50.958;10.994;2023-12-20T09:46:52;2.25;;;0.63;;
29906;SDS011;16776;50.958;10.994;2023-12-20T09:49:23;0.30;;;0.30;;
29906;SDS011;16776;50.958;10.994;2023-12-20T09:51:50;2.95;;;1.27;;
29906;SDS011;16776;50.958;10.994;2023-12-20T09:54:17;1.13;;;0.60;;
29906;SDS011;16776;50.958;10.994;2023-12-20T09:56:44;1.95;;;0.70;;
29906;SDS011;16776;50.958;10.994;2023-12-20T09:59:11;1.65;;;0.90;;
29906;SDS011;16776;50.958;10.994;2023-12-20T10:01:37;2.10;;;0.73;;
29906;SDS011;16776;50.958;10.994;2023-12-20T10:04:06;3.45;;;0.95;;
29906;SDS011;16776;50.958;10.994;2023-12-20T10:06:35;0.80;;;0.68;;
29906;SDS011;16776;50.958;10.994;2023-12-20T10:09:02;1.48;;;0.60;;
29906;SDS011;16776;50.958;10.994;2023-12-20T10:11:30;2.63;;;0.77;;
29906;SDS011;16776;50.958;10.994;2023-12-20T10:13:58;2.28;;;0.50;;
29906;SDS011;16776;50.958;10.994;2023-12-20T10:16:26;1.23;;;0.50;;
29906;SDS011;16776;50.958;10.994;2023-12-20T10:18:53;3.65;;;0.88;;
29906;SDS011;16776;50.958;10.994;2023-12-20T10:21:19;2.15;;;0.60;;
29906;SDS011;16776;50.958;10.994;2023-12-20T10:23:47;2.05;;;0.57;;
29906;SDS011;16776;50.958;10.994;2023-12-20T10:26:19;1.85;;;0.70;;
29906;SDS011;16776;50.958;10.994;2023-12-20T10:28:46;3.47;;;1.00;;
29906;SDS011;16776;50.958;10.994;2023-12-20T10:31:25;1.70;;;0.75;;
29906;SDS011;16776;50.958;10.994;2023-12-20T10:33:52;2.33;;;0.80;;
29906;SDS011;16776;50.958;10.994;2023-12-20T10:36:19;2.35;;;0.90;;
29906;SDS011;16776;50.958;10.994;2023-12-20T10:38:48;2.25;;;0.60;;
29906;SDS011;16776;50.958;10.994;2023-12-20T10:41:18;1.73;;;0.80;;
29906;SDS011;16776;50.958;10.994;2023-12-20T10:43:50;2.40;;;0.70;;
29906;SDS011;16776;50.958;10.994;2023-12-20T10:46:17;1.23;;;0.57;;
29906;SDS011;16776;50.958;10.994;2023-12-20T10:48:45;0.65;;;0.60;;
29906;SDS011;16776;50.958;10.994;2023-12-20T10:51:13;1.30;;;0.63;;
29906;SDS011;16776;50.958;10.994;2023-12-20T10:53:43;1.88;;;0.73;;
29906;SDS011;16776;50.958;10.994;2023-12-20T10:56:15;2.58;;;1.23;;
29906;SDS011;16776;50.958;10.994;2023-12-20T10:58:43;3.95;;;0.75;;
29906;SDS011;16776;50.958;10.994;2023-12-20T11:01:09;0.55;;;0.43;;
29906;SDS011;16776;50.958;10.994;2023-12-20T11:03:39;1.67;;;0.70;;
29906;SDS011;16776;50.958;10.994;2023-12-20T11:06:10;1.15;;;0.60;;
29906;SDS011;16776;50.958;10.994;2023-12-20T11:08:46;2.95;;;0.60;;
29906;SDS011;16776;50.958;10.994;2023-12-20T11:11:20;2.35;;;0.50;;
29906;SDS011;16776;50.958;10.994;2023-12-20T11:13:54;2.35;;;0.73;;
29906;SDS011;16776;50.958;10.994;2023-12-20T11:16:24;1.52;;;0.50;;
29906;SDS011;16776;50.958;10.994;2023-12-20T11:18:50;2.88;;;0.60;;
29906;SDS011;16776;50.958;10.994;2023-12-20T11:21:17;2.80;;;0.80;;
29906;SDS011;16776;50.958;10.994;2023-12-20T11:23:45;1.90;;;0.60;;
29906;SDS011;16776;50.958;10.994;2023-12-20T11:26:13;2.05;;;0.88;;
29906;SDS011;16776;50.958;10.994;2023-12-20T11:28:43;1.25;;;0.40;;
29906;SDS011;16776;50.958;10.994;2023-12-20T11:31:10;2.63;;;1.00;;
29906;SDS011;16776;50.958;10.994;2023-12-20T11:33:40;1.58;;;0.52;;
29906;SDS011;16776;50.958;10.994;2023-12-20T11:36:12;0.95;;;0.60;;
29906;SDS011;16776;50.958;10.994;2023-12-20T11:38:49;1.27;;;0.70;;
29906;SDS011;16776;50.958;10.994;2023-12-20T11:41:22;1.75;;;0.60;;
29906;SDS011;16776;50.958;10.994;2023-12-20T11:43:51;0.73;;;0.32;;
29906;SDS011;16776;50.958;10.994;2023-12-20T11:46:19;1.02;;;0.60;;
29906;SDS011;16776;50.958;10.994;2023-12-20T11:48:46;2.58;;;0.70;;
29906;SDS011;16776;50.958;10.994;2023-12-20T11:51:14;1.73;;;0.80;;
29906;SDS011;16776;50.958;10.994;2023-12-20T11:53:40;1.05;;;0.50;;
29906;SDS011;16776;50.958;10.994;2023-12-20T11:56:08;1.58;;;0.50;;
29906;SDS011;16776;50.958;10.994;2023-12-20T11:58:36;1.27;;;0.70;;
29906;SDS011;16776;50.958;10.994;2023-12-20T12:01:04;1.35;;;0.77;;
29906;SDS011;16776;50.958;10.994;2023-12-20T12:03:32;2.17;;;0.80;;
29906;SDS011;16776;50.958;10.994;2023-12-20T12:05:58;2.00;;;0.68;;
29906;SDS011;16776;50.958;10.994;2023-12-20T12:08:26;1.08;;;0.73;;
29906;SDS011;16776;50.958;10.994;2023-12-20T12:10:52;2.00;;;0.60;;
29906;SDS011;16776;50.958;10.994;2023-12-20T12:13:19;1.02;;;0.50;;
29906;SDS011;16776;50.958;10.994;2023-12-20T12:15:46;1.33;;;0.77;;
29906;SDS011;16776;50.958;10.994;2023-12-20T12:18:16;1.95;;;0.90;;
29906;SDS011;16776;50.958;10.994;2023-12-20T12:20:44;1.88;;;0.60;;
29906;SDS011;16776;50.958;10.994;2023-12-20T12:23:10;2.55;;;1.15;;
29906;SDS011;16776;50.958;10.994;2023-12-20T12:25:37;0.90;;;0.60;;
29906;SDS011;16776;50.958;10.994;2023-12-20T12:28:05;2.47;;;0.70;;
29906;SDS011;16776;50.958;10.994;2023-12-20T12:30:32;3.25;;;0.65;;
29906;SDS011;16776;50.958;10.994;2023-12-20T12:32:58;1.00;;;0.68;;
29906;SDS011;16776;50.958;10.994;2023-12-20T12:35:26;1.85;;;0.95;;
29906;SDS011;16776;50.958;10.994;2023-12-20T12:37:53;2.05;;;0.50;;
29906;SDS011;16776;50.958;10.994;2023-12-20T12:40:19;2.35;;;1.27;;
29906;SDS011;16776;50.958;10.994;2023-12-20T12:42:46;2.83;;;0.70;;
29906;SDS011;16776;50.958;10.994;2023-12-20T12:45:13;2.25;;;0.60;;
29906;SDS011;16776;50.958;10.994;2023-12-20T12:47:39;1.05;;;0.63;;
29906;SDS011;16776;50.958;10.994;2023-12-20T12:50:07;1.65;;;0.50;;
29906;SDS011;16776;50.958;10.994;2023-12-20T12:52:36;1.25;;;0.55;;
29906;SDS011;16776;50.958;10.994;2023-12-20T12:55:02;1.13;;;0.68;;
29906;SDS011;16776;50.958;10.994;2023-12-20T12:57:29;1.52;;;0.60;;
29906;SDS011;16776;50.958;10.994;2023-12-20T12:59:56;2.08;;;0.50;;
29906;SDS011;16776;50.958;10.994;2023-12-20T13:02:23;1.30;;;0.38;;
29906;SDS011;16776;50.958;10.994;2023-12-20T13:04:50;2.22;;;0.88;;
29906;SDS011;16776;50.958;10.994;2023-12-20T13:07:16;1.83;;;0.63;;
29906;SDS011;16776;50.958;10.994;2023-12-20T13:09:44;1.30;;;0.55;;
29906;SDS011;16776;50.958;10.994;2023-12-20T13:12:11;3.47;;;0.60;;
29906;SDS011;16776;50.958;10.994;2023-12-20T13:14:37;1.20;;;0.45;;
29906;SDS011;16776;50.958;10.994;2023-12-20T13:17:04;1.52;;;0.38;;
29906;SDS011;16776;50.958;10.994;2023-12-20T13:19:31;1.30;;;0.68;;
29906;SDS011;16776;50.958;10.994;2023-12-20T13:21:58;1.52;;;0.50;;
29906;SDS011;16776;50.958;10.994;2023-12-20T13:24:25;1.05;;;0.70;;
29906;SDS011;16776;50.958;10.994;2023-12-20T13:26:52;2.83;;;0.70;;
29906;SDS011;16776;50.958;10.994;2023-12-20T13:29:19;2.47;;;0.50;;
29906;SDS011;16776;50.958;10.994;2023-12-20T13:31:46;1.65;;;0.70;;
29906;SDS011;16776;50.958;10.994;2023-12-20T13:34:12;0.70;;;0.50;;
29906;SDS011;16776;50.958;10.994;2023-12-20T13:36:39;2.20;;;0.57;;
29906;SDS011;16776;50.958;10.994;2023-12-20T13:39:05;4.10;;;0.57;;
29906;SDS011;16776;50.958;10.994;2023-12-20T13:41:33;2.78;;;0.60;;
29906;SDS011;16776;50.958;10.994;2023-12-20T13:44:01;1.20;;;0.85;;
29906;SDS011;16776;50.958;10.994;2023-12-20T13:46:28;2.78;;;1.05;;
29906;SDS011;16776;50.958;10.994;2023-12-20T13:48:55;2.95;;;0.85;;
29906;SDS011;16776;50.958;10.994;2023-12-20T13:51:21;0.70;;;0.38;;
29906;SDS011;16776;50.958;10.994;2023-12-20T13:53:48;2.75;;;0.82;;
29906;SDS011;16776;50.958;10.994;2023-12-20T13:56:15;2.55;;;0.47;;
29906;SDS011;16776;50.958;10.994;2023-12-20T13:58:41;2.60;;;0.52;;
29906;SDS011;16776;50.958;10.994;2023-12-20T14:01:09;1.42;;;0.50;;
29906;SDS011;16776;50.958;10.994;2023-12-20T14:03:36;1.70;;;1.25;;
29906;SDS011;16776;50.958;10.994;2023-12-20T14:06:03;1.27;;;0.43;;
29906;SDS011;16776;50.958;10.994;2023-12-20T14:08:30;0.98;;;0.70;;
29906;SDS011;16776;50.958;10.994;2023-12-20T14:10:56;0.50;;;0.50;;
29906;SDS011;16776;50.958;10.994;2023-12-20T14:13:23;0.65;;;0.30;;
29906;SDS011;16776;50.958;10.994;2023-12-20T14:15:49;1.70;;;0.75;;
29906;SDS011;16776;50.958;10.994;2023-12-20T14:18:17;0.65;;;0.40;;
29906;SDS011;16776;50.958;10.994;2023-12-20T14:20:44;1.15;;;0.40;;
29906;SDS011;16776;50.958;10.994;2023-12-20T14:23:12;2.47;;;0.63;;
29906;SDS011;16776;50.958;10.994;2023-12-20T14:25:39;1.50;;;0.52;;
29906;SDS011;16776;50.958;10.994;2023-12-20T14:28:07;0.63;;;0.30;;
29906;SDS011;16776;50.958;10.994;2023-12-20T14:30:35;2.20;;;0.85;;
29906;SDS011;16776;50.958;10.994;2023-12-20T14:33:03;2.60;;;0.57;;